createdAt,value
2022-12-05T00:02:13.832Z,1.02
2022-12-05T00:04:45.369Z,0.90
2022-12-05T00:07:16.055Z,0.70
2022-12-05T00:09:46.379Z,0.90
2022-12-05T00:12:16.493Z,1.00
2022-12-05T00:14:46.757Z,0.90
2022-12-05T00:17:16.924Z,0.90
2022-12-05T00:19:49.080Z,1.00
2022-12-05T00:22:19.511Z,0.80
2022-12-05T00:24:49.807Z,0.90
2022-12-05T00:27:21.771Z,1.05
2022-12-05T00:29:51.775Z,0.90
2022-12-05T00:32:24.358Z,1.00
2022-12-05T00:34:56.377Z,0.80
2022-12-05T00:37:31.473Z,0.70
2022-12-05T00:40:01.772Z,0.70
2022-12-05T00:42:32.039Z,0.50
2022-12-05T00:45:02.534Z,0.60
2022-12-05T00:47:32.869Z,0.60
2022-12-05T00:50:03.095Z,0.70
2022-12-05T00:52:33.580Z,0.68
2022-12-05T00:55:03.983Z,0.77
2022-12-05T00:57:36.726Z,0.60
2022-12-05T01:00:07.503Z,0.80
2022-12-05T01:02:37.761Z,0.80
2022-12-05T01:05:08.608Z,0.65
2022-12-05T01:07:39.305Z,0.70
2022-12-05T01:10:13.396Z,0.60
2022-12-05T01:12:44.398Z,0.60
2022-12-05T01:15:15.461Z,0.50
2022-12-05T01:17:46.035Z,0.57
2022-12-05T01:20:16.194Z,0.80
2022-12-05T01:22:46.463Z,0.60
2022-12-05T01:25:16.789Z,0.70
2022-12-05T01:27:48.214Z,0.60
2022-12-05T01:30:18.752Z,0.60
2022-12-05T01:32:49.071Z,0.57
2022-12-05T01:35:19.179Z,0.50
2022-12-05T01:37:52.134Z,0.60
2022-12-05T01:40:22.690Z,0.40
2022-12-05T01:42:52.815Z,0.50
2022-12-05T01:45:42.363Z,0.60
2022-12-05T01:48:21.545Z,0.52
2022-12-05T01:50:52.075Z,0.50
2022-12-05T01:53:22.548Z,0.50
2022-12-05T01:55:54.932Z,0.55
2022-12-05T01:58:42.748Z,0.50
2022-12-05T02:01:04.493Z,0.53
2022-12-05T02:04:01.251Z,0.60
2022-12-05T02:06:32.975Z,0.50
2022-12-05T02:09:05.839Z,0.70
2022-12-05T02:12:08.098Z,0.50
2022-12-05T02:14:41.492Z,0.60
2022-12-05T02:17:26.352Z,0.54
2022-12-05T02:20:02.333Z,0.60
2022-12-05T02:23:03.666Z,0.55
2022-12-05T02:25:54.391Z,0.50
2022-12-05T02:28:44.056Z,0.47
2022-12-05T02:31:23.021Z,0.45
2022-12-05T02:33:55.716Z,0.40
2022-12-05T02:36:37.631Z,0.50
2022-12-05T02:39:29.207Z,0.50
2022-12-05T02:42:06.453Z,0.47
2022-12-05T02:44:45.540Z,0.43
2022-12-05T02:47:16.596Z,0.43
2022-12-05T02:50:13.766Z,0.30
2022-12-05T02:52:51.090Z,0.50
2022-12-05T02:55:21.989Z,0.50
2022-12-05T02:57:54.755Z,0.30
2022-12-05T03:00:25.397Z,0.40
2022-12-05T03:02:58.254Z,0.50
2022-12-05T03:05:50.232Z,0.40
2022-12-05T03:22:50.470Z,0.40
2022-12-05T03:27:55.662Z,0.40
2022-12-05T03:30:26.166Z,0.42
2022-12-05T03:32:59.304Z,0.50
2022-12-05T03:35:41.193Z,0.50
2022-12-05T03:38:16.795Z,0.33
2022-12-05T03:40:55.696Z,0.30
2022-12-05T03:43:40.165Z,0.50
2022-12-05T03:46:22.368Z,0.50
2022-12-05T03:49:01.169Z,0.40
2022-12-05T03:51:45.875Z,0.30
2022-12-05T03:54:27.560Z,0.30
2022-12-05T03:57:12.567Z,0.37
2022-12-05T03:59:50.160Z,0.40
2022-12-05T04:02:28.831Z,0.40
2022-12-05T04:05:10.431Z,0.30
2022-12-05T04:07:43.459Z,0.42
2022-12-05T04:10:19.705Z,0.30
2022-12-05T04:12:50.147Z,0.40
2022-12-05T04:15:29.250Z,0.20
2022-12-05T04:18:02.745Z,0.40
2022-12-05T04:20:57.767Z,0.40
2022-12-05T04:23:28.267Z,0.50
2022-12-05T04:26:07.119Z,0.30
2022-12-05T04:28:51.544Z,0.40
2022-12-05T04:31:30.035Z,0.40
2022-12-05T04:34:06.249Z,0.40
2022-12-05T04:36:47.314Z,0.30
2022-12-05T04:39:38.112Z,0.20
2022-12-05T04:42:10.978Z,0.40
2022-12-05T04:44:44.483Z,0.30
2022-12-05T04:47:16.151Z,0.30
2022-12-05T04:49:53.483Z,0.30
2022-12-05T04:52:21.982Z,0.30
2022-12-05T04:55:04.100Z,0.37
2022-12-05T04:57:48.783Z,0.50
2022-12-05T05:00:19.634Z,0.30
2022-12-05T05:02:58.647Z,0.40
2022-12-05T05:05:28.932Z,0.40
2022-12-05T05:07:59.469Z,0.30
2022-12-05T05:10:44.121Z,0.30
2022-12-05T05:13:15.006Z,0.40
2022-12-05T05:15:45.371Z,0.40
2022-12-05T05:18:15.718Z,0.30
2022-12-05T05:20:45.978Z,0.30
2022-12-05T05:23:16.206Z,0.40
2022-12-05T05:25:46.394Z,0.30
2022-12-05T05:28:16.647Z,0.30
2022-12-05T05:30:46.856Z,0.30
2022-12-05T05:33:17.379Z,0.43
2022-12-05T05:35:47.683Z,0.30
2022-12-05T05:38:17.833Z,0.40
2022-12-05T05:40:48.097Z,0.40
2022-12-05T05:43:18.496Z,0.30
2022-12-05T05:45:48.715Z,0.35
2022-12-05T05:48:18.870Z,0.40
2022-12-05T05:50:49.217Z,0.43
2022-12-05T05:53:19.253Z,0.40
2022-12-05T05:55:49.437Z,0.37
2022-12-05T05:58:19.909Z,0.40
2022-12-05T06:00:51.442Z,0.30
2022-12-05T06:03:21.741Z,0.23
2022-12-05T06:05:59.982Z,0.30
2022-12-05T06:08:31.950Z,0.30
2022-12-05T06:11:02.177Z,0.30
2022-12-05T06:13:32.431Z,0.37
2022-12-05T06:16:02.570Z,0.40
2022-12-05T06:18:32.638Z,0.40
2022-12-05T06:21:02.975Z,0.40
2022-12-05T06:23:33.467Z,0.20
2022-12-05T06:26:03.729Z,0.40
2022-12-05T06:28:36.514Z,0.30
2022-12-05T06:31:11.734Z,0.30
2022-12-05T06:33:42.089Z,0.30
2022-12-05T06:36:14.683Z,0.30
2022-12-05T06:38:45.367Z,0.30
2022-12-05T06:41:18.094Z,0.40
2022-12-05T06:43:49.498Z,0.40
2022-12-05T06:46:20.287Z,0.50
2022-12-05T06:48:50.978Z,0.30
2022-12-05T06:51:21.058Z,0.23
2022-12-05T06:53:51.564Z,0.30
2022-12-05T06:56:22.267Z,0.37
2022-12-05T06:58:54.261Z,0.35
2022-12-05T07:01:43.604Z,0.30
2022-12-05T07:04:17.250Z,0.40
2022-12-05T07:06:50.814Z,0.40
2022-12-05T07:09:19.596Z,0.40
2022-12-05T07:11:50.955Z,0.40
2022-12-05T07:16:53.293Z,0.37
2022-12-05T07:19:23.801Z,0.40
2022-12-05T07:21:54.043Z,0.30
2022-12-05T07:24:24.406Z,0.40
2022-12-05T07:26:54.784Z,0.30
2022-12-05T07:29:25.036Z,0.42
2022-12-05T07:31:56.593Z,0.40
2022-12-05T07:34:27.223Z,0.40
2022-12-05T07:36:57.435Z,0.40
2022-12-05T07:39:27.672Z,0.30
2022-12-05T07:41:58.084Z,0.40
2022-12-05T07:44:28.387Z,0.33
2022-12-05T07:46:58.668Z,0.30
2022-12-05T07:49:28.975Z,0.40
2022-12-05T07:51:59.279Z,0.30
2022-12-05T07:54:29.648Z,0.47
2022-12-05T07:56:59.933Z,0.40
2022-12-05T07:59:30.288Z,0.40
2022-12-05T08:02:00.691Z,0.30
2022-12-05T08:04:32.608Z,0.35
2022-12-05T08:07:02.672Z,0.30
2022-12-05T08:09:35.790Z,0.50
2022-12-05T08:12:05.998Z,0.30
2022-12-05T08:14:36.346Z,0.40
2022-12-05T08:17:06.639Z,0.43
2022-12-05T08:19:37.159Z,0.53
2022-12-05T08:22:07.299Z,0.40
2022-12-05T08:24:40.523Z,0.40
2022-12-05T08:27:11.231Z,0.40
2022-12-05T08:29:41.784Z,0.40
2022-12-05T08:32:12.406Z,0.30
2022-12-05T08:34:43.291Z,0.50
2022-12-05T08:37:14.752Z,0.46
2022-12-05T08:39:46.999Z,0.50
2022-12-05T08:42:18.003Z,0.50
2022-12-05T08:44:48.293Z,0.40
2022-12-05T08:47:18.449Z,0.40
2022-12-05T08:49:48.804Z,0.53
2022-12-05T08:52:19.191Z,0.40
2022-12-05T08:54:49.483Z,0.60
2022-12-05T08:57:19.720Z,0.60
2022-12-05T08:59:50.351Z,0.40
2022-12-05T09:02:20.531Z,0.45
2022-12-05T09:04:54.882Z,0.62
2022-12-05T09:07:24.958Z,0.50
2022-12-05T09:09:55.213Z,0.60
2022-12-05T09:12:25.417Z,0.50
2022-12-05T09:14:56.398Z,0.70
2022-12-05T09:17:26.636Z,0.50
2022-12-05T09:19:56.891Z,0.50
2022-12-05T09:22:27.128Z,0.50
2022-12-05T09:24:57.584Z,0.50
2022-12-05T09:27:28.073Z,0.60
2022-12-05T09:29:58.026Z,0.60
2022-12-05T09:32:28.211Z,0.43
2022-12-05T09:34:58.467Z,0.60
2022-12-05T09:37:39.323Z,0.57
2022-12-05T09:40:00.494Z,0.60
2022-12-05T09:42:51.738Z,0.50
2022-12-05T09:45:24.968Z,0.50
2022-12-05T09:48:09.747Z,0.60
2022-12-05T09:50:48.522Z,0.53
2022-12-05T09:53:31.608Z,0.50
2022-12-05T09:56:08.600Z,0.50
2022-12-05T09:58:47.230Z,0.80
2022-12-05T10:01:42.724Z,0.60
2022-12-05T10:04:31.830Z,0.60
2022-12-05T10:07:04.864Z,0.60
2022-12-05T10:10:14.527Z,0.80
2022-12-05T10:13:01.202Z,0.50
2022-12-05T10:15:36.843Z,1.00
2022-12-05T10:18:09.836Z,0.80
2022-12-05T10:20:54.728Z,0.70
2022-12-05T10:23:55.983Z,0.75
2022-12-05T10:26:00.977Z,0.70
2022-12-05T10:28:42.219Z,0.80
2022-12-05T10:31:14.673Z,0.70
2022-12-05T10:33:51.756Z,0.72
2022-12-05T10:36:22.323Z,0.90
2022-12-05T10:38:52.644Z,0.57
2022-12-05T10:41:23.035Z,0.80
2022-12-05T10:43:52.626Z,0.68
2022-12-05T10:46:21.798Z,0.60
2022-12-05T10:48:52.161Z,0.90
2022-12-05T10:54:25.463Z,0.82
2022-12-05T10:56:55.972Z,0.68
2022-12-05T10:59:28.168Z,0.77
2022-12-05T11:02:00.151Z,0.90
2022-12-05T11:04:47.240Z,0.80
2022-12-05T11:07:34.736Z,0.70
2022-12-05T11:10:07.093Z,0.70
2022-12-05T11:12:39.518Z,0.70
2022-12-05T11:15:22.545Z,0.73
2022-12-05T11:17:53.083Z,0.86
2022-12-05T11:20:26.228Z,0.70
2022-12-05T11:22:57.209Z,0.80
2022-12-05T11:25:35.507Z,0.87
2022-12-05T11:28:20.584Z,0.85
2022-12-05T11:31:15.735Z,0.63
2022-12-05T11:36:22.979Z,0.80
2022-12-05T11:38:54.522Z,0.60
2022-12-05T11:41:33.354Z,0.72
2022-12-05T11:44:09.282Z,0.70
2022-12-05T11:46:53.931Z,0.70
2022-12-05T11:52:25.331Z,0.60
2022-12-05T11:55:20.920Z,0.70
2022-12-05T11:57:59.582Z,0.60
2022-12-05T12:00:41.326Z,0.70
2022-12-05T12:03:37.077Z,0.60
2022-12-05T12:06:19.233Z,0.62
2022-12-05T12:08:57.759Z,0.70
2022-12-05T12:11:48.646Z,0.68
2022-12-05T12:14:24.573Z,0.60
2022-12-05T12:17:17.378Z,0.60
2022-12-05T12:20:20.896Z,0.55
2022-12-05T12:23:13.077Z,0.43
2022-12-05T12:26:14.537Z,0.48
2022-12-05T12:28:59.401Z,0.50
2022-12-05T12:31:41.486Z,0.60
2022-12-05T12:34:21.097Z,0.50
2022-12-05T12:36:53.565Z,0.47
2022-12-05T12:39:50.250Z,0.42
2022-12-05T12:42:31.468Z,0.48
2022-12-05T12:45:10.246Z,0.45
2022-12-05T12:47:59.360Z,0.40
2022-12-05T12:50:31.923Z,0.40
2022-12-05T12:53:24.133Z,0.40
2022-12-05T12:56:02.790Z,0.40
2022-12-05T12:58:38.584Z,0.40
2022-12-05T13:01:20.913Z,0.40
2022-12-05T13:03:54.104Z,0.33
2022-12-05T13:06:33.371Z,0.40
2022-12-05T13:09:12.308Z,0.40
2022-12-05T13:11:43.715Z,0.50
2022-12-05T13:14:18.685Z,0.40
2022-12-05T13:16:51.024Z,0.37
2022-12-05T13:19:33.915Z,0.30
2022-12-05T13:22:03.959Z,0.30
2022-12-05T13:24:34.448Z,0.40
2022-12-05T13:27:11.400Z,0.40
2022-12-05T13:30:09.376Z,0.30
2022-12-05T13:32:38.502Z,0.37
2022-12-05T13:35:12.855Z,0.30
2022-12-05T13:38:07.274Z,0.30
2022-12-05T13:40:56.839Z,0.33
2022-12-05T13:43:29.141Z,0.37
2022-12-05T13:46:02.196Z,0.30
2022-12-05T13:48:33.301Z,0.35
2022-12-05T13:51:11.582Z,0.30
2022-12-05T13:53:44.787Z,0.30
2022-12-05T13:56:18.564Z,0.40
2022-12-05T13:59:00.922Z,0.30
2022-12-05T14:01:56.077Z,0.30
2022-12-05T14:04:28.134Z,0.33
2022-12-05T14:07:01.239Z,0.35
2022-12-05T14:09:32.551Z,0.40
2022-12-05T14:12:17.456Z,0.40
2022-12-05T14:15:02.704Z,0.30
2022-12-05T14:17:33.441Z,0.20
2022-12-05T14:20:28.424Z,0.40
2022-12-05T14:23:26.691Z,0.50
2022-12-05T14:26:08.528Z,0.30
2022-12-05T14:29:08.067Z,0.40
2022-12-05T14:31:52.939Z,0.40
2022-12-05T14:34:30.864Z,0.45
2022-12-05T14:37:03.290Z,0.30
2022-12-05T14:39:51.767Z,0.40
2022-12-05T14:42:33.779Z,0.30
2022-12-05T14:45:05.073Z,0.43
2022-12-05T14:47:35.552Z,0.45
2022-12-05T14:50:24.311Z,0.42
2022-12-05T14:53:24.500Z,0.40
2022-12-05T14:56:17.082Z,0.47
2022-12-05T14:59:05.485Z,0.23
2022-12-05T15:01:43.165Z,0.57
2022-12-05T15:04:27.421Z,0.50
2022-12-05T15:07:06.592Z,0.30
2022-12-05T15:09:54.362Z,0.30
2022-12-05T15:12:30.116Z,0.40
2022-12-05T15:15:08.531Z,0.40
2022-12-05T15:17:50.145Z,0.40
2022-12-05T15:20:23.341Z,0.50
2022-12-05T15:22:53.393Z,0.40
2022-12-05T15:25:25.045Z,0.40
2022-12-05T15:28:03.926Z,0.30
2022-12-05T15:30:34.511Z,0.40
2022-12-05T15:33:04.551Z,0.60
2022-12-05T15:35:35.312Z,0.40
2022-12-05T15:38:27.543Z,0.30
2022-12-05T15:40:56.021Z,0.55
2022-12-05T15:43:32.238Z,0.50
2022-12-05T15:46:13.914Z,0.70
2022-12-05T15:48:44.228Z,0.50
2022-12-05T15:51:14.998Z,0.40
2022-12-05T15:53:48.544Z,0.40
2022-12-05T15:56:29.542Z,0.40
2022-12-05T15:59:04.236Z,0.50
2022-12-05T16:01:35.809Z,0.45
2022-12-05T16:04:11.507Z,0.60
2022-12-05T16:06:45.634Z,0.50
2022-12-05T16:09:24.459Z,0.58
2022-12-05T16:12:05.779Z,0.60
2022-12-05T16:17:11.740Z,0.68
2022-12-05T16:19:42.546Z,0.46
2022-12-05T16:22:27.351Z,0.50
2022-12-05T16:25:02.377Z,0.40
2022-12-05T16:27:37.806Z,0.47
2022-12-05T16:30:22.838Z,0.50
2022-12-05T16:32:55.067Z,0.50
2022-12-05T16:35:43.660Z,0.75
2022-12-05T16:38:28.246Z,0.50
2022-12-05T16:41:03.463Z,0.50
2022-12-05T16:43:36.282Z,0.50
2022-12-05T16:46:21.985Z,0.50
2022-12-05T16:48:52.426Z,0.40
2022-12-05T16:51:26.352Z,0.60
2022-12-05T16:53:56.944Z,0.45
2022-12-05T16:56:32.916Z,0.47
2022-12-05T16:59:07.507Z,0.62
2022-12-05T17:01:39.340Z,0.40
2022-12-05T17:04:11.835Z,0.55
2022-12-05T17:06:43.217Z,0.50
2022-12-05T17:09:14.325Z,0.50
2022-12-05T17:11:46.221Z,0.50
2022-12-05T17:14:17.696Z,0.40
2022-12-05T17:16:47.951Z,0.50
2022-12-05T17:19:18.455Z,0.50
2022-12-05T17:21:48.650Z,0.40
2022-12-05T17:24:19.600Z,0.50
2022-12-05T17:26:49.815Z,0.50
2022-12-05T17:29:19.845Z,0.45
2022-12-05T17:31:50.171Z,0.50
2022-12-05T17:34:20.628Z,0.50
2022-12-05T17:36:50.803Z,0.60
2022-12-05T17:39:27.892Z,0.40
2022-12-05T17:41:54.219Z,0.60
2022-12-05T17:44:24.219Z,0.40
2022-12-05T17:46:54.741Z,0.47
2022-12-05T17:49:25.810Z,0.50
2022-12-05T17:52:21.121Z,0.57
2022-12-05T17:54:27.697Z,0.50
2022-12-05T17:56:57.857Z,0.50
2022-12-05T17:59:27.922Z,0.50
2022-12-05T18:01:58.015Z,0.60
2022-12-05T18:04:28.232Z,0.50
2022-12-05T18:06:58.263Z,0.60
2022-12-05T18:12:10.510Z,0.45
2022-12-05T18:14:40.889Z,0.53
2022-12-05T18:17:11.279Z,0.50
2022-12-05T18:19:41.539Z,0.60
2022-12-05T18:22:13.731Z,0.60
2022-12-05T18:24:44.073Z,0.60
2022-12-05T18:27:14.251Z,0.42
2022-12-05T18:29:44.424Z,0.75
2022-12-05T18:32:15.242Z,0.60
2022-12-05T18:34:46.821Z,0.50
2022-12-05T18:37:18.761Z,0.60
2022-12-05T18:39:49.518Z,0.55
2022-12-05T18:42:19.954Z,0.65
2022-12-05T18:44:50.317Z,0.50
2022-12-05T18:47:21.268Z,0.60
2022-12-05T18:49:51.409Z,0.63
2022-12-05T18:52:22.430Z,0.63
2022-12-05T18:55:09.320Z,0.55
2022-12-05T18:57:26.210Z,0.50
2022-12-05T18:59:56.486Z,0.60
2022-12-05T19:02:27.117Z,0.60
2022-12-05T19:04:57.532Z,0.67
2022-12-05T19:07:27.891Z,0.50
2022-12-05T19:09:58.197Z,0.60
2022-12-05T19:12:28.421Z,0.70
2022-12-05T19:14:58.595Z,0.40
2022-12-05T19:17:29.179Z,0.68
2022-12-05T19:19:59.680Z,0.62
2022-12-05T19:22:31.125Z,0.67
2022-12-05T19:25:02.052Z,0.55
2022-12-05T19:27:33.996Z,0.50
2022-12-05T19:30:09.173Z,0.80
2022-12-05T19:32:39.838Z,0.60
2022-12-05T19:35:07.724Z,0.50
2022-12-05T19:37:37.607Z,0.40
2022-12-05T19:40:09.945Z,0.60
2022-12-05T19:42:40.262Z,0.40
2022-12-05T19:45:16.397Z,0.47
2022-12-05T19:47:43.671Z,0.60
2022-12-05T19:50:15.809Z,0.70
2022-12-05T19:52:46.765Z,0.50
2022-12-05T19:55:17.097Z,0.50
2022-12-05T19:57:47.552Z,0.50
2022-12-05T20:00:19.719Z,0.50
2022-12-05T20:02:50.593Z,0.50
2022-12-05T20:05:20.627Z,0.60
2022-12-05T20:07:50.643Z,0.50
2022-12-05T20:10:21.400Z,0.57
2022-12-05T20:12:51.739Z,0.55
2022-12-05T20:15:22.476Z,0.60
2022-12-05T20:17:53.435Z,0.53
2022-12-05T20:20:23.896Z,0.50
2022-12-05T20:22:53.959Z,0.60
2022-12-05T20:25:23.957Z,0.47
2022-12-05T20:27:54.080Z,0.50
2022-12-05T20:30:24.298Z,0.70
2022-12-05T20:32:54.971Z,0.50
2022-12-05T20:35:25.273Z,0.50
2022-12-05T20:37:55.596Z,0.70
2022-12-05T20:40:25.793Z,0.50
2022-12-05T20:42:55.895Z,0.50
2022-12-05T20:45:26.224Z,0.60
2022-12-05T20:47:59.396Z,0.47
2022-12-05T20:50:32.374Z,0.60
2022-12-05T20:53:02.712Z,0.45
2022-12-05T20:55:32.812Z,0.50
2022-12-05T20:58:05.280Z,0.50
2022-12-05T21:00:34.769Z,0.50
2022-12-05T21:03:04.752Z,0.50
2022-12-05T21:05:36.616Z,0.50
2022-12-05T21:08:07.206Z,0.60
2022-12-05T21:10:37.650Z,0.55
2022-12-05T21:13:07.786Z,0.40
2022-12-05T21:15:38.907Z,0.65
2022-12-05T21:18:12.134Z,0.30
2022-12-05T21:20:42.567Z,0.50
2022-12-05T21:23:13.293Z,0.47
2022-12-05T21:25:44.142Z,0.40
2022-12-05T21:28:15.143Z,0.40
2022-12-05T21:30:45.783Z,0.50
2022-12-05T21:33:17.475Z,0.50
2022-12-05T21:35:58.202Z,0.50
2022-12-05T21:38:28.352Z,0.50
2022-12-05T21:41:00.260Z,0.60
2022-12-05T21:43:31.893Z,0.50
2022-12-05T21:46:02.007Z,0.40
2022-12-05T21:48:32.096Z,0.50
2022-12-05T21:51:02.198Z,0.70
2022-12-05T21:53:32.260Z,0.47
2022-12-05T21:56:24.444Z,0.50
2022-12-05T21:58:53.189Z,0.55
2022-12-05T22:01:29.943Z,0.40
2022-12-05T22:04:00.995Z,0.40
2022-12-05T22:06:32.434Z,0.60
2022-12-05T22:09:02.994Z,0.50
2022-12-05T22:11:33.578Z,0.60
2022-12-05T22:14:03.922Z,0.50
2022-12-05T22:16:34.406Z,0.40
2022-12-05T22:19:04.817Z,0.60
2022-12-05T22:21:35.432Z,0.40
2022-12-05T22:24:05.655Z,0.50
2022-12-05T22:26:38.770Z,0.40
2022-12-05T22:29:08.983Z,0.50
2022-12-05T22:31:42.084Z,0.50
2022-12-05T22:34:12.409Z,0.50
2022-12-05T22:36:42.841Z,0.50
2022-12-05T22:39:14.592Z,0.50
2022-12-05T22:41:45.488Z,0.45
2022-12-05T22:44:16.259Z,0.70
2022-12-05T22:46:47.856Z,0.40
2022-12-05T22:49:23.760Z,0.55
2022-12-05T22:51:51.043Z,0.50
2022-12-05T22:54:24.699Z,0.50
2022-12-05T22:56:53.309Z,0.50
2022-12-05T22:59:23.619Z,0.50
2022-12-05T23:01:54.067Z,0.50
2022-12-05T23:04:25.365Z,0.40
2022-12-05T23:07:02.398Z,0.47
2022-12-05T23:09:32.850Z,0.50
2022-12-05T23:12:03.805Z,0.40
2022-12-05T23:14:35.761Z,0.40
2022-12-05T23:17:06.813Z,0.47
2022-12-05T23:19:37.114Z,0.40
2022-12-05T23:22:07.331Z,0.50
2022-12-05T23:24:39.012Z,0.42
2022-12-05T23:29:50.036Z,0.50
2022-12-05T23:32:26.035Z,0.50
2022-12-05T23:34:56.407Z,0.50
2022-12-05T23:37:29.592Z,0.40
2022-12-05T23:40:01.493Z,0.45
2022-12-05T23:42:31.773Z,0.40
2022-12-05T23:45:06.515Z,0.50
2022-12-05T23:47:38.227Z,0.50
2022-12-05T23:50:11.166Z,0.53
2022-12-05T23:52:42.909Z,0.50
2022-12-05T23:55:35.580Z,0.50
